sensor_id;sensor_type;location;lat;lon;timestamp;P1;durP1;ratioP1;P2;durP2;ratioP2
966;SDS011;56108;48.730;9.304;2023-04-03T00:01:50;5.25;;;4.80;;
966;SDS011;56108;48.730;9.304;2023-04-03T00:03:58;6.40;;;5.43;;
966;SDS011;56108;48.730;9.304;2023-04-03T00:06:09;5.90;;;5.40;;
966;SDS011;56108;48.730;9.304;2023-04-03T00:08:18;5.32;;;4.93;;
966;SDS011;56108;48.730;9.304;2023-04-03T00:10:27;5.40;;;5.00;;
966;SDS011;56108;48.730;9.304;2023-04-03T00:12:36;6.20;;;5.45;;
966;SDS011;56108;48.730;9.304;2023-04-03T00:14:44;4.97;;;4.57;;
966;SDS011;56108;48.730;9.304;2023-04-03T00:16:52;5.53;;;5.03;;
966;SDS011;56108;48.730;9.304;2023-04-03T00:19:02;5.68;;;5.10;;
966;SDS011;56108;48.730;9.304;2023-04-03T00:21:14;6.30;;;5.75;;
966;SDS011;56108;48.730;9.304;2023-04-03T00:23:22;5.78;;;5.22;;
966;SDS011;56108;48.730;9.304;2023-04-03T00:25:30;6.30;;;5.75;;
966;SDS011;56108;48.730;9.304;2023-04-03T00:27:39;6.47;;;5.57;;
966;SDS011;56108;48.730;9.304;2023-04-03T00:29:47;6.15;;;4.60;;
966;SDS011;56108;48.730;9.304;2023-04-03T00:31:55;5.30;;;4.80;;
966;SDS011;56108;48.730;9.304;2023-04-03T00:34:03;5.38;;;4.97;;
966;SDS011;56108;48.730;9.304;2023-04-03T00:36:14;5.43;;;5.00;;
966;SDS011;56108;48.730;9.304;2023-04-03T00:38:22;5.22;;;4.82;;
966;SDS011;56108;48.730;9.304;2023-04-03T00:40:33;5.60;;;5.20;;
966;SDS011;56108;48.730;9.304;2023-04-03T00:42:51;5.32;;;4.93;;
966;SDS011;56108;48.730;9.304;2023-04-03T00:47:39;5.30;;;4.90;;
966;SDS011;56108;48.730;9.304;2023-04-03T00:49:49;5.32;;;4.82;;
966;SDS011;56108;48.730;9.304;2023-04-03T00:52:02;5.18;;;4.78;;
966;SDS011;56108;48.730;9.304;2023-04-03T00:54:12;4.93;;;4.43;;
966;SDS011;56108;48.730;9.304;2023-04-03T00:56:21;5.72;;;5.15;;
966;SDS011;56108;48.730;9.304;2023-04-03T00:58:33;5.53;;;5.03;;
966;SDS011;56108;48.730;9.304;2023-04-03T01:00:46;5.20;;;4.80;;
966;SDS011;56108;48.730;9.304;2023-04-03T01:03:02;5.80;;;5.38;;
966;SDS011;56108;48.730;9.304;2023-04-03T01:05:11;5.55;;;4.95;;
966;SDS011;56108;48.730;9.304;2023-04-03T01:07:26;5.60;;;5.05;;
966;SDS011;56108;48.730;9.304;2023-04-03T01:09:38;5.68;;;5.18;;
966;SDS011;56108;48.730;9.304;2023-04-03T01:11:47;5.75;;;5.20;;
966;SDS011;56108;48.730;9.304;2023-04-03T01:13:55;5.28;;;4.78;;
966;SDS011;56108;48.730;9.304;2023-04-03T01:16:05;5.25;;;4.75;;
966;SDS011;56108;48.730;9.304;2023-04-03T01:18:14;5.80;;;5.28;;
966;SDS011;56108;48.730;9.304;2023-04-03T01:23:26;4.85;;;4.45;;
966;SDS011;56108;48.730;9.304;2023-04-03T01:25:46;5.30;;;4.80;;
966;SDS011;56108;48.730;9.304;2023-04-03T01:27:55;5.45;;;5.05;;
966;SDS011;56108;48.730;9.304;2023-04-03T01:30:07;5.53;;;5.03;;
966;SDS011;56108;48.730;9.304;2023-04-03T01:32:24;7.70;;;4.70;;
966;SDS011;56108;48.730;9.304;2023-04-03T01:34:33;5.45;;;5.05;;
966;SDS011;56108;48.730;9.304;2023-04-03T01:36:41;5.55;;;5.05;;
966;SDS011;56108;48.730;9.304;2023-04-03T01:38:49;5.78;;;4.55;;
966;SDS011;56108;48.730;9.304;2023-04-03T01:40:58;5.82;;;5.32;;
966;SDS011;56108;48.730;9.304;2023-04-03T01:43:06;6.07;;;5.57;;
966;SDS011;56108;48.730;9.304;2023-04-03T01:45:15;5.38;;;4.95;;
966;SDS011;56108;48.730;9.304;2023-04-03T01:47:26;6.03;;;5.53;;
966;SDS011;56108;48.730;9.304;2023-04-03T01:49:34;4.95;;;4.50;;
966;SDS011;56108;48.730;9.304;2023-04-03T01:51:42;5.53;;;4.80;;
966;SDS011;56108;48.730;9.304;2023-04-03T01:53:51;5.57;;;5.07;;
966;SDS011;56108;48.730;9.304;2023-04-03T01:56:00;5.22;;;4.72;;
966;SDS011;56108;48.730;9.304;2023-04-03T01:58:11;5.85;;;5.22;;
966;SDS011;56108;48.730;9.304;2023-04-03T02:00:21;5.43;;;5.03;;
966;SDS011;56108;48.730;9.304;2023-04-03T02:02:34;5.25;;;4.75;;
966;SDS011;56108;48.730;9.304;2023-04-03T02:04:42;5.78;;;5.30;;
966;SDS011;56108;48.730;9.304;2023-04-03T02:06:50;4.60;;;4.20;;
966;SDS011;56108;48.730;9.304;2023-04-03T02:08:58;5.05;;;4.65;;
966;SDS011;56108;48.730;9.304;2023-04-03T02:11:08;4.93;;;4.53;;
966;SDS011;56108;48.730;9.304;2023-04-03T02:13:16;5.32;;;4.72;;
966;SDS011;56108;48.730;9.304;2023-04-03T02:15:25;4.82;;;4.32;;
966;SDS011;56108;48.730;9.304;2023-04-03T02:17:35;5.95;;;5.45;;
966;SDS011;56108;48.730;9.304;2023-04-03T02:19:44;5.65;;;5.15;;
966;SDS011;56108;48.730;9.304;2023-04-03T02:21:52;5.10;;;4.70;;
966;SDS011;56108;48.730;9.304;2023-04-03T02:24:00;5.95;;;5.25;;
966;SDS011;56108;48.730;9.304;2023-04-03T02:26:09;5.25;;;4.70;;
966;SDS011;56108;48.730;9.304;2023-04-03T02:28:22;5.43;;;5.03;;
966;SDS011;56108;48.730;9.304;2023-04-03T02:30:30;5.47;;;5.05;;
966;SDS011;56108;48.730;9.304;2023-04-03T02:32:41;4.90;;;4.50;;
966;SDS011;56108;48.730;9.304;2023-04-03T02:34:50;5.22;;;4.82;;
966;SDS011;56108;48.730;9.304;2023-04-03T02:36:59;5.50;;;4.97;;
966;SDS011;56108;48.730;9.304;2023-04-03T02:39:07;4.70;;;4.30;;
966;SDS011;56108;48.730;9.304;2023-04-03T02:41:15;5.55;;;5.15;;
966;SDS011;56108;48.730;9.304;2023-04-03T02:43:24;6.72;;;4.90;;
966;SDS011;56108;48.730;9.304;2023-04-03T02:45:32;5.30;;;4.90;;
966;SDS011;56108;48.730;9.304;2023-04-03T02:47:43;6.05;;;5.55;;
966;SDS011;56108;48.730;9.304;2023-04-03T02:49:51;4.90;;;4.60;;
966;SDS011;56108;48.730;9.304;2023-04-03T02:52:02;6.10;;;4.90;;
966;SDS011;56108;48.730;9.304;2023-04-03T02:54:11;6.10;;;5.10;;
966;SDS011;56108;48.730;9.304;2023-04-03T02:56:23;4.93;;;4.22;;
966;SDS011;56108;48.730;9.304;2023-04-03T02:58:32;5.28;;;4.88;;
966;SDS011;56108;48.730;9.304;2023-04-03T03:00:41;5.03;;;4.53;;
966;SDS011;56108;48.730;9.304;2023-04-03T03:02:52;5.20;;;4.80;;
966;SDS011;56108;48.730;9.304;2023-04-03T03:05:00;5.75;;;5.25;;
966;SDS011;56108;48.730;9.304;2023-04-03T03:07:08;5.38;;;4.55;;
966;SDS011;56108;48.730;9.304;2023-04-03T03:09:18;5.40;;;4.90;;
966;SDS011;56108;48.730;9.304;2023-04-03T03:11:26;5.15;;;4.70;;
966;SDS011;56108;48.730;9.304;2023-04-03T03:13:34;5.75;;;5.25;;
966;SDS011;56108;48.730;9.304;2023-04-03T03:15:43;4.93;;;4.63;;
966;SDS011;56108;48.730;9.304;2023-04-03T03:17:54;6.25;;;4.60;;
966;SDS011;56108;48.730;9.304;2023-04-03T03:20:03;4.97;;;4.50;;
966;SDS011;56108;48.730;9.304;2023-04-03T03:22:12;4.93;;;4.47;;
966;SDS011;56108;48.730;9.304;2023-04-03T03:24:22;5.43;;;4.93;;
966;SDS011;56108;48.730;9.304;2023-04-03T03:26:31;5.70;;;5.18;;
966;SDS011;56108;48.730;9.304;2023-04-03T03:28:39;4.63;;;4.15;;
966;SDS011;56108;48.730;9.304;2023-04-03T03:30:48;5.22;;;4.82;;
966;SDS011;56108;48.730;9.304;2023-04-03T03:33:00;5.00;;;4.60;;
966;SDS011;56108;48.730;9.304;2023-04-03T03:35:08;4.97;;;4.63;;
966;SDS011;56108;48.730;9.304;2023-04-03T03:37:16;5.45;;;5.05;;
966;SDS011;56108;48.730;9.304;2023-04-03T03:39:24;4.80;;;4.43;;
966;SDS011;56108;48.730;9.304;2023-04-03T03:41:33;5.03;;;4.63;;
966;SDS011;56108;48.730;9.304;2023-04-03T03:43:42;5.80;;;5.22;;
966;SDS011;56108;48.730;9.304;2023-04-03T03:45:53;5.50;;;5.00;;
966;SDS011;56108;48.730;9.304;2023-04-03T03:48:07;5.00;;;4.45;;
966;SDS011;56108;48.730;9.304;2023-04-03T03:50:15;5.10;;;4.70;;
966;SDS011;56108;48.730;9.304;2023-04-03T03:52:23;4.70;;;4.30;;
966;SDS011;56108;48.730;9.304;2023-04-03T03:54:31;5.00;;;4.60;;
966;SDS011;56108;48.730;9.304;2023-04-03T03:56:39;5.50;;;5.00;;
966;SDS011;56108;48.730;9.304;2023-04-03T03:58:47;4.80;;;4.40;;
966;SDS011;56108;48.730;9.304;2023-04-03T04:00:59;5.13;;;4.72;;
966;SDS011;56108;48.730;9.304;2023-04-03T04:03:18;4.60;;;4.30;;
966;SDS011;56108;48.730;9.304;2023-04-03T04:05:29;4.65;;;4.25;;
966;SDS011;56108;48.730;9.304;2023-04-03T04:07:38;5.32;;;4.93;;
966;SDS011;56108;48.730;9.304;2023-04-03T04:09:46;5.53;;;5.03;;
966;SDS011;56108;48.730;9.304;2023-04-03T04:11:54;5.05;;;4.65;;
966;SDS011;56108;48.730;9.304;2023-04-03T04:14:02;5.25;;;4.85;;
966;SDS011;56108;48.730;9.304;2023-04-03T04:16:12;5.10;;;4.60;;
966;SDS011;56108;48.730;9.304;2023-04-03T04:18:24;5.97;;;5.30;;
966;SDS011;56108;48.730;9.304;2023-04-03T04:20:32;4.82;;;4.47;;
966;SDS011;56108;48.730;9.304;2023-04-03T04:22:40;5.80;;;5.10;;
966;SDS011;56108;48.730;9.304;2023-04-03T04:24:49;5.78;;;5.10;;
966;SDS011;56108;48.730;9.304;2023-04-03T04:26:57;5.30;;;4.90;;
966;SDS011;56108;48.730;9.304;2023-04-03T04:29:08;4.68;;;4.28;;
966;SDS011;56108;48.730;9.304;2023-04-03T04:31:16;4.72;;;4.32;;
966;SDS011;56108;48.730;9.304;2023-04-03T04:33:28;4.57;;;4.10;;
966;SDS011;56108;48.730;9.304;2023-04-03T04:35:39;4.88;;;4.38;;
966;SDS011;56108;48.730;9.304;2023-04-03T04:37:49;4.60;;;4.30;;
966;SDS011;56108;48.730;9.304;2023-04-03T04:39:58;4.18;;;3.70;;
966;SDS011;56108;48.730;9.304;2023-04-03T04:42:08;4.10;;;3.80;;
966;SDS011;56108;48.730;9.304;2023-04-03T04:44:21;5.03;;;4.55;;
966;SDS011;56108;48.730;9.304;2023-04-03T04:46:29;4.38;;;4.07;;
966;SDS011;56108;48.730;9.304;2023-04-03T04:48:39;4.70;;;4.30;;
966;SDS011;56108;48.730;9.304;2023-04-03T04:50:48;5.10;;;4.60;;
966;SDS011;56108;48.730;9.304;2023-04-03T04:52:56;4.32;;;3.92;;
966;SDS011;56108;48.730;9.304;2023-04-03T04:55:05;4.28;;;3.80;;
966;SDS011;56108;48.730;9.304;2023-04-03T04:57:13;4.40;;;4.00;;
966;SDS011;56108;48.730;9.304;2023-04-03T04:59:25;5.13;;;4.70;;
966;SDS011;56108;48.730;9.304;2023-04-03T05:01:35;4.60;;;4.20;;
966;SDS011;56108;48.730;9.304;2023-04-03T05:03:51;4.28;;;3.90;;
966;SDS011;56108;48.730;9.304;2023-04-03T05:06:03;4.68;;;3.90;;
966;SDS011;56108;48.730;9.304;2023-04-03T05:08:13;4.55;;;4.25;;
966;SDS011;56108;48.730;9.304;2023-04-03T05:10:21;3.75;;;3.47;;
966;SDS011;56108;48.730;9.304;2023-04-03T05:12:29;4.78;;;4.18;;
966;SDS011;56108;48.730;9.304;2023-04-03T05:14:40;5.00;;;4.50;;
966;SDS011;56108;48.730;9.304;2023-04-03T05:16:48;4.00;;;3.70;;
966;SDS011;56108;48.730;9.304;2023-04-03T05:19:02;4.88;;;4.45;;
966;SDS011;56108;48.730;9.304;2023-04-03T05:21:11;4.60;;;4.20;;
966;SDS011;56108;48.730;9.304;2023-04-03T05:23:19;4.60;;;3.75;;
966;SDS011;56108;48.730;9.304;2023-04-03T05:25:28;4.25;;;3.95;;
966;SDS011;56108;48.730;9.304;2023-04-03T05:27:38;6.40;;;4.45;;
966;SDS011;56108;48.730;9.304;2023-04-03T05:29:46;4.35;;;4.00;;
966;SDS011;56108;48.730;9.304;2023-04-03T05:31:58;4.10;;;3.80;;
966;SDS011;56108;48.730;9.304;2023-04-03T05:34:10;4.50;;;4.10;;
966;SDS011;56108;48.730;9.304;2023-04-03T05:36:20;4.60;;;4.25;;
966;SDS011;56108;48.730;9.304;2023-04-03T05:38:32;4.50;;;4.15;;
966;SDS011;56108;48.730;9.304;2023-04-03T05:40:41;4.70;;;4.10;;
966;SDS011;56108;48.730;9.304;2023-04-03T05:42:49;4.10;;;3.80;;
966;SDS011;56108;48.730;9.304;2023-04-03T05:45:00;4.00;;;3.70;;
966;SDS011;56108;48.730;9.304;2023-04-03T05:47:08;4.18;;;3.88;;
966;SDS011;56108;48.730;9.304;2023-04-03T05:49:19;4.40;;;4.07;;
966;SDS011;56108;48.730;9.304;2023-04-03T05:51:28;4.68;;;4.28;;
966;SDS011;56108;48.730;9.304;2023-04-03T05:53:44;4.20;;;3.85;;
966;SDS011;56108;48.730;9.304;2023-04-03T05:55:54;4.88;;;4.57;;
966;SDS011;56108;48.730;9.304;2023-04-03T05:58:03;4.72;;;4.32;;
966;SDS011;56108;48.730;9.304;2023-04-03T06:00:14;4.30;;;3.92;;
966;SDS011;56108;48.730;9.304;2023-04-03T06:02:31;4.38;;;4.05;;
966;SDS011;56108;48.730;9.304;2023-04-03T06:04:43;4.25;;;3.88;;
966;SDS011;56108;48.730;9.304;2023-04-03T06:06:55;4.38;;;3.90;;
966;SDS011;56108;48.730;9.304;2023-04-03T06:09:06;4.50;;;4.13;;
966;SDS011;56108;48.730;9.304;2023-04-03T06:11:18;4.25;;;3.95;;
966;SDS011;56108;48.730;9.304;2023-04-03T06:13:26;3.78;;;3.58;;
966;SDS011;56108;48.730;9.304;2023-04-03T06:15:39;5.70;;;4.30;;
966;SDS011;56108;48.730;9.304;2023-04-03T06:18:00;4.68;;;4.28;;
966;SDS011;56108;48.730;9.304;2023-04-03T06:20:13;4.47;;;4.13;;
966;SDS011;56108;48.730;9.304;2023-04-03T06:22:21;4.50;;;4.20;;
966;SDS011;56108;48.730;9.304;2023-04-03T06:24:31;4.25;;;3.95;;
966;SDS011;56108;48.730;9.304;2023-04-03T06:26:40;5.05;;;4.55;;
966;SDS011;56108;48.730;9.304;2023-04-03T06:28:48;4.10;;;3.80;;
966;SDS011;56108;48.730;9.304;2023-04-03T06:30:56;4.35;;;3.95;;
966;SDS011;56108;48.730;9.304;2023-04-03T06:33:04;4.00;;;3.65;;
966;SDS011;56108;48.730;9.304;2023-04-03T06:35:15;4.10;;;3.80;;
966;SDS011;56108;48.730;9.304;2023-04-03T06:37:23;3.80;;;3.50;;
966;SDS011;56108;48.730;9.304;2023-04-03T06:39:33;4.47;;;4.00;;
966;SDS011;56108;48.730;9.304;2023-04-03T06:41:42;4.20;;;3.88;;
966;SDS011;56108;48.730;9.304;2023-04-03T06:43:50;4.43;;;4.13;;
966;SDS011;56108;48.730;9.304;2023-04-03T06:46:04;4.40;;;4.10;;
966;SDS011;56108;48.730;9.304;2023-04-03T06:48:18;3.92;;;3.63;;
966;SDS011;56108;48.730;9.304;2023-04-03T06:50:30;4.55;;;4.15;;
966;SDS011;56108;48.730;9.304;2023-04-03T06:52:41;4.30;;;4.00;;
966;SDS011;56108;48.730;9.304;2023-04-03T06:54:49;4.43;;;4.13;;
966;SDS011;56108;48.730;9.304;2023-04-03T06:57:01;3.90;;;3.70;;
966;SDS011;56108;48.730;9.304;2023-04-03T06:59:12;4.40;;;4.10;;
966;SDS011;56108;48.730;9.304;2023-04-03T07:01:21;5.80;;;4.05;;
966;SDS011;56108;48.730;9.304;2023-04-03T07:03:29;5.28;;;4.88;;
966;SDS011;56108;48.730;9.304;2023-04-03T07:05:42;4.60;;;3.92;;
966;SDS011;56108;48.730;9.304;2023-04-03T07:07:50;4.70;;;4.40;;
966;SDS011;56108;48.730;9.304;2023-04-03T07:09:59;4.10;;;3.80;;
966;SDS011;56108;48.730;9.304;2023-04-03T07:12:11;5.25;;;4.40;;
966;SDS011;56108;48.730;9.304;2023-04-03T07:14:19;4.70;;;4.30;;
966;SDS011;56108;48.730;9.304;2023-04-03T07:16:27;4.38;;;4.00;;
966;SDS011;56108;48.730;9.304;2023-04-03T07:18:36;4.00;;;3.70;;
966;SDS011;56108;48.730;9.304;2023-04-03T07:20:48;4.40;;;4.10;;
966;SDS011;56108;48.730;9.304;2023-04-03T07:22:56;4.35;;;4.05;;
966;SDS011;56108;48.730;9.304;2023-04-03T07:25:07;4.55;;;4.25;;
966;SDS011;56108;48.730;9.304;2023-04-03T07:27:16;3.60;;;3.40;;
966;SDS011;56108;48.730;9.304;2023-04-03T07:29:24;4.45;;;4.15;;
966;SDS011;56108;48.730;9.304;2023-04-03T07:31:33;5.00;;;4.60;;
966;SDS011;56108;48.730;9.304;2023-04-03T07:33:43;4.30;;;4.00;;
966;SDS011;56108;48.730;9.304;2023-04-03T07:35:56;4.60;;;4.20;;
966;SDS011;56108;48.730;9.304;2023-04-03T07:38:05;4.60;;;4.30;;
966;SDS011;56108;48.730;9.304;2023-04-03T07:40:13;4.82;;;4.43;;
966;SDS011;56108;48.730;9.304;2023-04-03T07:42:23;4.25;;;3.95;;
966;SDS011;56108;48.730;9.304;2023-04-03T07:44:31;5.50;;;5.10;;
966;SDS011;56108;48.730;9.304;2023-04-03T07:46:40;5.32;;;4.93;;
966;SDS011;56108;48.730;9.304;2023-04-03T07:48:48;4.53;;;4.15;;
966;SDS011;56108;48.730;9.304;2023-04-03T07:51:01;5.00;;;4.70;;
966;SDS011;56108;48.730;9.304;2023-04-03T07:53:12;7.00;;;5.40;;
966;SDS011;56108;48.730;9.304;2023-04-03T07:55:20;4.32;;;4.03;;
966;SDS011;56108;48.730;9.304;2023-04-03T07:57:28;5.40;;;4.90;;
966;SDS011;56108;48.730;9.304;2023-04-03T07:59:36;4.65;;;4.32;;
966;SDS011;56108;48.730;9.304;2023-04-03T08:01:45;4.65;;;4.25;;
966;SDS011;56108;48.730;9.304;2023-04-03T08:03:53;5.55;;;5.05;;
966;SDS011;56108;48.730;9.304;2023-04-03T08:06:05;5.38;;;4.90;;
966;SDS011;56108;48.730;9.304;2023-04-03T08:08:20;5.30;;;4.90;;
966;SDS011;56108;48.730;9.304;2023-04-03T08:10:29;5.18;;;4.75;;
966;SDS011;56108;48.730;9.304;2023-04-03T08:12:38;4.95;;;4.63;;
966;SDS011;56108;48.730;9.304;2023-04-03T08:14:46;4.88;;;4.45;;
966;SDS011;56108;48.730;9.304;2023-04-03T08:16:56;8.27;;;5.50;;
966;SDS011;56108;48.730;9.304;2023-04-03T08:19:05;5.30;;;5.00;;
966;SDS011;56108;48.730;9.304;2023-04-03T08:21:31;5.50;;;5.10;;
966;SDS011;56108;48.730;9.304;2023-04-03T08:23:40;6.18;;;5.57;;
966;SDS011;56108;48.730;9.304;2023-04-03T08:25:49;5.57;;;5.18;;
966;SDS011;56108;48.730;9.304;2023-04-03T08:27:58;4.60;;;4.22;;
966;SDS011;56108;48.730;9.304;2023-04-03T08:30:09;5.53;;;5.13;;
966;SDS011;56108;48.730;9.304;2023-04-03T08:32:20;5.40;;;5.00;;
966;SDS011;56108;48.730;9.304;2023-04-03T08:34:28;6.85;;;5.50;;
966;SDS011;56108;48.730;9.304;2023-04-03T08:36:42;5.28;;;4.88;;
966;SDS011;56108;48.730;9.304;2023-04-03T08:38:51;5.68;;;5.05;;
966;SDS011;56108;48.730;9.304;2023-04-03T08:41:02;5.20;;;4.70;;
966;SDS011;56108;48.730;9.304;2023-04-03T08:43:23;5.65;;;5.15;;
966;SDS011;56108;48.730;9.304;2023-04-03T08:45:42;4.97;;;4.57;;
966;SDS011;56108;48.730;9.304;2023-04-03T08:47:55;6.28;;;5.78;;
966;SDS011;56108;48.730;9.304;2023-04-03T08:50:11;6.18;;;4.72;;
966;SDS011;56108;48.730;9.304;2023-04-03T08:52:27;5.70;;;4.47;;
966;SDS011;56108;48.730;9.304;2023-04-03T08:54:48;5.38;;;4.97;;
966;SDS011;56108;48.730;9.304;2023-04-03T08:56:58;5.07;;;4.68;;
966;SDS011;56108;48.730;9.304;2023-04-03T08:59:10;5.22;;;4.93;;
966;SDS011;56108;48.730;9.304;2023-04-03T09:01:25;5.22;;;4.82;;
966;SDS011;56108;48.730;9.304;2023-04-03T09:03:42;4.82;;;4.45;;
966;SDS011;56108;48.730;9.304;2023-04-03T09:05:55;4.95;;;4.65;;
966;SDS011;56108;48.730;9.304;2023-04-03T09:08:11;5.00;;;4.60;;
966;SDS011;56108;48.730;9.304;2023-04-03T09:10:32;5.43;;;5.03;;
966;SDS011;56108;48.730;9.304;2023-04-03T09:12:44;5.70;;;5.40;;
966;SDS011;56108;48.730;9.304;2023-04-03T09:14:58;5.13;;;4.72;;
966;SDS011;56108;48.730;9.304;2023-04-03T09:17:26;6.40;;;5.80;;
966;SDS011;56108;48.730;9.304;2023-04-03T09:19:47;5.07;;;4.78;;
966;SDS011;56108;48.730;9.304;2023-04-03T09:22:01;4.90;;;4.47;;
966;SDS011;56108;48.730;9.304;2023-04-03T09:24:21;8.55;;;4.95;;
966;SDS011;56108;48.730;9.304;2023-04-03T09:26:31;5.25;;;4.95;;
966;SDS011;56108;48.730;9.304;2023-04-03T09:28:44;4.75;;;4.43;;
966;SDS011;56108;48.730;9.304;2023-04-03T09:30:54;4.70;;;4.30;;
966;SDS011;56108;48.730;9.304;2023-04-03T09:33:02;5.10;;;4.70;;
966;SDS011;56108;48.730;9.304;2023-04-03T09:35:16;5.00;;;4.50;;
966;SDS011;56108;48.730;9.304;2023-04-03T09:37:44;4.97;;;4.68;;
966;SDS011;56108;48.730;9.304;2023-04-03T09:39:56;5.22;;;4.65;;
966;SDS011;56108;48.730;9.304;2023-04-03T09:42:05;4.45;;;4.15;;
966;SDS011;56108;48.730;9.304;2023-04-03T09:44:24;5.38;;;4.82;;
966;SDS011;56108;48.730;9.304;2023-04-03T09:46:34;4.68;;;4.28;;
966;SDS011;56108;48.730;9.304;2023-04-03T09:48:49;4.85;;;4.40;;
966;SDS011;56108;48.730;9.304;2023-04-03T09:51:13;4.82;;;4.43;;
966;SDS011;56108;48.730;9.304;2023-04-03T09:53:28;6.18;;;4.20;;
966;SDS011;56108;48.730;9.304;2023-04-03T09:55:43;4.43;;;4.13;;
966;SDS011;56108;48.730;9.304;2023-04-03T09:57:53;4.22;;;3.92;;
966;SDS011;56108;48.730;9.304;2023-04-03T10:00:01;4.05;;;3.75;;
966;SDS011;56108;48.730;9.304;2023-04-03T10:02:21;4.50;;;4.20;;
966;SDS011;56108;48.730;9.304;2023-04-03T10:04:37;4.28;;;3.92;;
966;SDS011;56108;48.730;9.304;2023-04-03T10:06:47;4.55;;;4.25;;
966;SDS011;56108;48.730;9.304;2023-04-03T10:08:58;4.88;;;4.47;;
966;SDS011;56108;48.730;9.304;2023-04-03T10:11:13;4.43;;;4.07;;
966;SDS011;56108;48.730;9.304;2023-04-03T10:13:23;4.57;;;4.28;;
966;SDS011;56108;48.730;9.304;2023-04-03T10:15:33;3.97;;;3.78;;
966;SDS011;56108;48.730;9.304;2023-04-03T10:17:49;3.72;;;3.42;;
966;SDS011;56108;48.730;9.304;2023-04-03T10:20:04;3.88;;;3.67;;
966;SDS011;56108;48.730;9.304;2023-04-03T10:22:32;4.18;;;3.78;;
966;SDS011;56108;48.730;9.304;2023-04-03T10:24:55;4.28;;;3.80;;
966;SDS011;56108;48.730;9.304;2023-04-03T10:27:24;4.18;;;3.97;;
966;SDS011;56108;48.730;9.304;2023-04-03T10:29:42;4.13;;;3.75;;
966;SDS011;56108;48.730;9.304;2023-04-03T10:32:00;4.30;;;4.00;;
966;SDS011;56108;48.730;9.304;2023-04-03T10:34:14;4.10;;;3.80;;
966;SDS011;56108;48.730;9.304;2023-04-03T10:36:37;4.20;;;3.90;;
966;SDS011;56108;48.730;9.304;2023-04-03T10:38:51;4.30;;;3.85;;
966;SDS011;56108;48.730;9.304;2023-04-03T10:41:09;4.40;;;4.00;;
966;SDS011;56108;48.730;9.304;2023-04-03T10:43:29;5.32;;;3.78;;
966;SDS011;56108;48.730;9.304;2023-04-03T10:45:49;4.30;;;4.00;;
966;SDS011;56108;48.730;9.304;2023-04-03T10:48:06;4.30;;;4.00;;
966;SDS011;56108;48.730;9.304;2023-04-03T10:50:23;4.05;;;3.75;;
966;SDS011;56108;48.730;9.304;2023-04-03T10:52:40;4.60;;;4.20;;
966;SDS011;56108;48.730;9.304;2023-04-03T10:54:56;4.78;;;4.43;;
966;SDS011;56108;48.730;9.304;2023-04-03T10:57:14;4.38;;;4.18;;
966;SDS011;56108;48.730;9.304;2023-04-03T10:59:26;4.03;;;3.72;;
966;SDS011;56108;48.730;9.304;2023-04-03T11:01:38;4.53;;;4.15;;
966;SDS011;56108;48.730;9.304;2023-04-03T11:03:50;4.55;;;4.25;;
966;SDS011;56108;48.730;9.304;2023-04-03T11:06:02;3.97;;;3.67;;
966;SDS011;56108;48.730;9.304;2023-04-03T11:08:18;4.03;;;3.65;;
966;SDS011;56108;48.730;9.304;2023-04-03T11:10:36;3.67;;;3.47;;
966;SDS011;56108;48.730;9.304;2023-04-03T11:12:49;3.35;;;3.15;;
966;SDS011;56108;48.730;9.304;2023-04-03T11:15:11;3.95;;;3.65;;
966;SDS011;56108;48.730;9.304;2023-04-03T11:17:25;3.78;;;3.53;;
966;SDS011;56108;48.730;9.304;2023-04-03T11:19:41;3.85;;;3.50;;
966;SDS011;56108;48.730;9.304;2023-04-03T11:21:54;3.63;;;3.42;;
966;SDS011;56108;48.730;9.304;2023-04-03T11:24:11;5.68;;;3.10;;
966;SDS011;56108;48.730;9.304;2023-04-03T11:26:31;3.65;;;3.35;;
966;SDS011;56108;48.730;9.304;2023-04-03T11:28:46;4.07;;;3.00;;
966;SDS011;56108;48.730;9.304;2023-04-03T11:31:02;3.30;;;3.10;;
966;SDS011;56108;48.730;9.304;2023-04-03T11:33:23;3.50;;;3.22;;
966;SDS011;56108;48.730;9.304;2023-04-03T11:35:42;3.70;;;3.40;;
966;SDS011;56108;48.730;9.304;2023-04-03T11:37:53;3.80;;;3.50;;
966;SDS011;56108;48.730;9.304;2023-04-03T11:40:03;4.68;;;3.00;;
966;SDS011;56108;48.730;9.304;2023-04-03T11:42:16;3.17;;;3.00;;
966;SDS011;56108;48.730;9.304;2023-04-03T11:44:35;3.55;;;3.05;;
966;SDS011;56108;48.730;9.304;2023-04-03T11:46:54;3.70;;;3.40;;
966;SDS011;56108;48.730;9.304;2023-04-03T11:49:04;3.33;;;3.05;;
966;SDS011;56108;48.730;9.304;2023-04-03T11:54:06;3.35;;;3.10;;
966;SDS011;56108;48.730;9.304;2023-04-03T11:56:49;3.92;;;3.63;;
966;SDS011;56108;48.730;9.304;2023-04-03T11:59:16;3.25;;;3.05;;
966;SDS011;56108;48.730;9.304;2023-04-03T12:01:42;3.40;;;3.20;;
966;SDS011;56108;48.730;9.304;2023-04-03T12:09:32;3.20;;;3.00;;
966;SDS011;56108;48.730;9.304;2023-04-03T12:14:37;3.00;;;2.80;;
966;SDS011;56108;48.730;9.304;2023-04-03T12:16:46;3.78;;;3.50;;
966;SDS011;56108;48.730;9.304;2023-04-03T12:19:00;4.15;;;3.60;;
966;SDS011;56108;48.730;9.304;2023-04-03T12:21:14;3.53;;;3.22;;
966;SDS011;56108;48.730;9.304;2023-04-03T12:23:27;3.90;;;3.47;;
966;SDS011;56108;48.730;9.304;2023-04-03T12:25:47;3.40;;;3.13;;
966;SDS011;56108;48.730;9.304;2023-04-03T12:27:59;3.55;;;3.25;;
966;SDS011;56108;48.730;9.304;2023-04-03T12:30:12;3.72;;;3.42;;
966;SDS011;56108;48.730;9.304;2023-04-03T12:32:32;3.17;;;2.97;;
966;SDS011;56108;48.730;9.304;2023-04-03T12:34:57;3.58;;;3.28;;
966;SDS011;56108;48.730;9.304;2023-04-03T12:37:21;3.40;;;3.20;;
966;SDS011;56108;48.730;9.304;2023-04-03T12:39:47;3.92;;;3.65;;
966;SDS011;56108;48.730;9.304;2023-04-03T12:42:05;4.22;;;3.60;;
966;SDS011;56108;48.730;9.304;2023-04-03T12:44:35;3.53;;;3.22;;
966;SDS011;56108;48.730;9.304;2023-04-03T12:46:52;4.68;;;3.13;;
966;SDS011;56108;48.730;9.304;2023-04-03T12:49:04;3.70;;;3.42;;
966;SDS011;56108;48.730;9.304;2023-04-03T12:51:37;3.58;;;3.28;;
966;SDS011;56108;48.730;9.304;2023-04-03T12:53:51;3.40;;;3.20;;
966;SDS011;56108;48.730;9.304;2023-04-03T12:56:23;3.50;;;3.30;;
966;SDS011;56108;48.730;9.304;2023-04-03T12:58:33;5.05;;;4.07;;
966;SDS011;56108;48.730;9.304;2023-04-03T13:00:41;3.50;;;3.30;;
966;SDS011;56108;48.730;9.304;2023-04-03T13:02:49;3.40;;;3.20;;
966;SDS011;56108;48.730;9.304;2023-04-03T13:04:58;3.47;;;3.20;;
966;SDS011;56108;48.730;9.304;2023-04-03T13:07:18;3.65;;;3.35;;
966;SDS011;56108;48.730;9.304;2023-04-03T13:09:32;3.50;;;3.30;;
966;SDS011;56108;48.730;9.304;2023-04-03T13:11:40;3.60;;;3.40;;
966;SDS011;56108;48.730;9.304;2023-04-03T13:13:55;4.55;;;3.35;;
966;SDS011;56108;48.730;9.304;2023-04-03T13:16:08;4.15;;;3.60;;
966;SDS011;56108;48.730;9.304;2023-04-03T13:18:26;4.05;;;3.75;;
966;SDS011;56108;48.730;9.304;2023-04-03T13:20:36;3.38;;;3.08;;
966;SDS011;56108;48.730;9.304;2023-04-03T13:22:47;4.00;;;3.72;;
966;SDS011;56108;48.730;9.304;2023-04-03T13:25:08;3.42;;;3.13;;
966;SDS011;56108;48.730;9.304;2023-04-03T13:27:20;3.42;;;3.22;;
966;SDS011;56108;48.730;9.304;2023-04-03T13:29:32;5.57;;;3.55;;
966;SDS011;56108;48.730;9.304;2023-04-03T13:31:42;3.47;;;3.25;;
966;SDS011;56108;48.730;9.304;2023-04-03T13:33:56;3.42;;;3.10;;
966;SDS011;56108;48.730;9.304;2023-04-03T13:36:13;3.85;;;3.55;;
966;SDS011;56108;48.730;9.304;2023-04-03T13:38:27;3.72;;;3.53;;
966;SDS011;56108;48.730;9.304;2023-04-03T13:40:49;3.95;;;3.55;;
966;SDS011;56108;48.730;9.304;2023-04-03T13:42:59;3.22;;;2.97;;
966;SDS011;56108;48.730;9.304;2023-04-03T13:45:20;3.40;;;3.17;;
966;SDS011;56108;48.730;9.304;2023-04-03T13:47:37;3.97;;;3.78;;
966;SDS011;56108;48.730;9.304;2023-04-03T13:49:59;3.38;;;3.20;;
966;SDS011;56108;48.730;9.304;2023-04-03T13:52:23;3.88;;;3.63;;
966;SDS011;56108;48.730;9.304;2023-04-03T13:54:36;3.47;;;3.20;;
966;SDS011;56108;48.730;9.304;2023-04-03T13:56:52;3.70;;;3.50;;
966;SDS011;56108;48.730;9.304;2023-04-03T13:59:04;3.40;;;3.17;;